Hauptseite
METAR-TAF:

METAR-TAF

Flughäfen :

Bournemouth Airport

Bournemouth, England

Breite: 50-47N, Länge: 001-50W, Höhe: 11 m

Beobachtung

Neuester Wetterbericht von vor 32 Minuten, um 17:50 UTC
Wind 10 kt aus West/Südwest
Temperatur 18°C
Luftfeuchtigkeit 100%
Luftdruck 1008 hPa
Sichtweite: 4000 m
Durchbrochene Bewölkung in der Höhe von 400 ft
feuchter Dunst,

METAR: EGHH 251750Z 24010KT 4000 BR BKN004 18/18 Q1008

Zeit: 19:22 (18:22 UTC)

Prognose

Neuester Wetterbericht von vor 1 Stunde und 25 Minuten, um 16:57 UTC
Gültige Prognose vom 25 um 18 UTC bis 25 um 24 UTC
Wind 7 kt aus Südwest
Sichtweite: 3500 m
Durchbrochene Bewölkung in der Höhe von 300 ft
Leichtregen, feuchter Dunst
Übergehend zu
vom 25 um 20 UTC bis 25 um 23 UTC
Sichtweite 10 km oder mehr
Aufgelockert bewölkt in der Höhe von 1600 ft

TAF: EGHH 251657Z 2518/2524 23007KT 3500 -RA BR BKN003 BECMG 2520/2523 9999 NSW SCT016

Wetterbeobachtungen und Prognosen von mehr als 4000 Flughäfen (METAR und TAF Bericht).

Die verfügbaren Stationen werden durch gelbe und rote Markierungen auf der Karte dargestellt.

Führen Sie die Maus auf sie, um den Namen der Station zu sehen.

Darauf klicken, um die Beobachtung von Wetterbeobachtungen und Prognosen zu sehen.

Um die Karte zu ändern : klicken Sie auf den grünen Tasten mit einem schwarzen Kreuz Zum Vergrößern, auf den grünen Button mit einem Gedankenstrich zu verkleinern, oder auf die grünen Pfeile für benachbarte Karten.


METAR-TAF: